Time;durP1;ratioP1;P1;durP2;ratioP2;P2;SDS_P1;SDS_P2;PMS_P1;PMS_P2;Temp;Humidity;BMP_temperature;BMP_pressure;BME280_temperature;BME280_humidity;BME280_pressure;Samples;Min_cycle;Max_cycle;Signal;HPM_P1;HPM_P2
2022/04/08 00:00:21;;;;;;;1.37;1.07;;;8.00;99.90;;;;;;7366691;19;20392;-69
2022/04/08 00:02:49;;;;;;;4.40;1.38;;;8.00;99.90;;;;;;7384895;19;20434;-68
2022/04/08 00:05:14;;;;;;;1.80;1.27;;;8.00;99.90;;;;;;7381408;19;20324;-67
2022/04/08 00:07:40;;;;;;;2.45;1.30;;;7.90;99.90;;;;;;7383327;19;20401;-69
2022/04/08 00:10:06;;;;;;;2.22;1.23;;;7.90;99.90;;;;;;7380718;19;20375;-68
2022/04/08 00:12:32;;;;;;;1.20;1.10;;;8.00;99.90;;;;;;7380842;19;20443;-69
2022/04/08 00:14:58;;;;;;;1.95;1.13;;;8.10;99.90;;;;;;7378357;19;20332;-69
2022/04/08 00:17:24;;;;;;;3.50;1.40;;;7.90;99.90;;;;;;7382086;19;20412;-68
2022/04/08 00:19:50;;;;;;;3.40;1.30;;;7.80;99.90;;;;;;7382563;19;20547;-68
2022/04/08 00:22:18;;;;;;;1.50;1.10;;;7.80;99.90;;;;;;7381996;19;20332;-69
2022/04/08 00:24:44;;;;;;;2.28;1.20;;;7.80;99.90;;;;;;7383656;19;20327;-69
2022/04/08 00:27:09;;;;;;;2.05;1.13;;;7.80;99.90;;;;;;7381663;19;20301;-68
2022/04/08 00:29:35;;;;;;;1.87;1.13;;;7.80;99.90;;;;;;7381880;19;20325;-68
2022/04/08 00:32:01;;;;;;;2.70;1.10;;;7.80;99.90;;;;;;7374442;19;20341;-67
2022/04/08 00:34:27;;;;;;;1.87;1.20;;;7.80;99.90;;;;;;7380656;19;20329;-69
2022/04/08 00:36:54;;;;;;;1.07;0.93;;;7.80;99.90;;;;;;7383117;19;20651;-70
2022/04/08 00:39:20;;;;;;;2.25;1.33;;;7.80;99.90;;;;;;7383589;19;20321;-70
2022/04/08 00:41:46;;;;;;;2.55;1.27;;;7.80;99.90;;;;;;7379719;19;20360;-69
2022/04/08 00:44:12;;;;;;;2.35;1.17;;;7.80;99.90;;;;;;7382573;19;20404;-71
2022/04/08 00:46:41;;;;;;;3.00;1.50;;;7.80;99.90;;;;;;7379693;19;20935;-69
2022/04/08 00:49:07;;;;;;;1.05;1.00;;;7.70;99.90;;;;;;7385729;19;20340;-69
2022/04/08 00:51:33;;;;;;;1.40;1.30;;;7.70;99.90;;;;;;7378166;19;20358;-68
2022/04/08 00:53:59;;;;;;;1.70;1.20;;;7.70;99.90;;;;;;7378175;19;20780;-68
2022/04/08 00:56:26;;;;;;;2.25;1.13;;;7.70;99.90;;;;;;7379692;19;20363;-69
2022/04/08 00:58:51;;;;;;;1.73;1.23;;;7.80;99.90;;;;;;7384635;19;20321;-69
2022/04/08 01:01:18;;;;;;;1.50;1.20;;;7.80;99.90;;;;;;7377697;19;21141;-69
2022/04/08 01:03:44;;;;;;;2.88;1.17;;;7.90;99.90;;;;;;7384009;19;20380;-70
2022/04/08 01:06:09;;;;;;;1.42;1.13;;;7.90;99.90;;;;;;7376840;19;20941;-69
2022/04/08 01:08:35;;;;;;;1.73;1.20;;;7.90;99.90;;;;;;7381231;19;20412;-67
2022/04/08 01:11:03;;;;;;;2.07;1.20;;;8.00;99.90;;;;;;7379074;19;20334;-68
2022/04/08 01:13:28;;;;;;;1.48;1.17;;;8.00;99.90;;;;;;7382466;19;20421;-68
2022/04/08 01:15:54;;;;;;;1.40;1.17;;;8.00;99.90;;;;;;7373814;19;20913;-69
2022/04/08 01:18:19;;;;;;;1.30;1.10;;;8.00;99.90;;;;;;7381850;19;20301;-70
2022/04/08 01:20:46;;;;;;;1.30;1.20;;;8.00;99.90;;;;;;7380542;19;20364;-69
2022/04/08 01:23:12;;;;;;;1.88;1.30;;;8.00;99.90;;;;;;7382355;19;21130;-67
2022/04/08 01:25:37;;;;;;;2.10;1.23;;;8.10;99.90;;;;;;7378986;19;20337;-67
2022/04/08 01:28:03;;;;;;;1.13;1.03;;;8.10;99.90;;;;;;7378659;19;20337;-67
2022/04/08 01:30:29;;;;;;;1.00;1.00;;;8.10;99.90;;;;;;7379330;19;20376;-68
2022/04/08 01:32:55;;;;;;;1.92;1.10;;;8.00;99.90;;;;;;7383132;19;20890;-68
2022/04/08 01:35:21;;;;;;;1.45;1.13;;;7.80;99.90;;;;;;7381975;19;20333;-68
2022/04/08 01:37:46;;;;;;;1.10;1.00;;;7.80;99.90;;;;;;7381951;19;21231;-69
2022/04/08 01:40:12;;;;;;;1.40;1.10;;;7.80;99.90;;;;;;7380462;19;20333;-67
2022/04/08 01:42:38;;;;;;;3.10;1.13;;;7.80;99.90;;;;;;7379136;19;20381;-68
2022/04/08 01:45:04;;;;;;;3.33;1.30;;;7.70;99.90;;;;;;7379513;19;20351;-67
2022/04/08 01:47:32;;;;;;;1.20;1.10;;;7.70;99.90;;;;;;7381317;19;20329;-68
2022/04/08 01:49:58;;;;;;;3.20;1.08;;;7.70;99.90;;;;;;7380409;19;20450;-70
2022/04/08 01:52:24;;;;;;;4.27;1.23;;;7.70;99.90;;;;;;7379139;19;20384;-69
2022/04/08 01:54:49;;;;;;;1.70;1.30;;;7.60;99.90;;;;;;7381389;19;20340;-70
2022/04/08 01:57:17;;;;;;;1.33;1.00;;;7.60;99.90;;;;;;7378540;19;20316;-69
2022/04/08 01:59:44;;;;;;;1.50;1.13;;;7.60;99.90;;;;;;7384213;19;20735;-70
2022/04/08 02:02:09;;;;;;;2.20;1.10;;;7.60;99.90;;;;;;7374953;19;20342;-69
2022/04/08 02:04:35;;;;;;;1.47;1.17;;;7.60;99.90;;;;;;7378936;19;20332;-69
2022/04/08 02:07:02;;;;;;;1.90;1.15;;;7.70;99.90;;;;;;7378046;19;20366;-68
2022/04/08 02:09:28;;;;;;;1.25;1.00;;;7.70;99.90;;;;;;7378655;19;20879;-67
2022/04/08 02:11:54;;;;;;;1.23;1.13;;;7.70;99.90;;;;;;7377013;19;20322;-68
2022/04/08 02:14:20;;;;;;;1.33;1.00;;;7.70;99.90;;;;;;7380810;19;20353;-69
2022/04/08 02:16:45;;;;;;;2.63;1.43;;;7.70;99.90;;;;;;7380265;19;20345;-70
2022/04/08 02:19:11;;;;;;;1.40;1.10;;;7.80;99.90;;;;;;7379242;19;20333;-68
2022/04/08 02:21:36;;;;;;;1.30;1.10;;;7.70;99.90;;;;;;7378314;19;20680;-68
2022/04/08 02:24:03;;;;;;;1.30;1.20;;;7.70;99.90;;;;;;7379273;19;20396;-68
2022/04/08 02:26:29;;;;;;;1.20;1.10;;;7.70;99.90;;;;;;7376228;19;20337;-68
2022/04/08 02:28:54;;;;;;;2.80;1.10;;;7.70;99.90;;;;;;7379660;19;20329;-68
2022/04/08 02:31:20;;;;;;;1.27;1.10;;;7.70;99.90;;;;;;7375798;19;20384;-68
2022/04/08 02:33:45;;;;;;;1.25;1.15;;;7.60;99.90;;;;;;7381788;19;20317;-67
2022/04/08 02:36:11;;;;;;;1.00;1.00;;;7.50;99.90;;;;;;7376911;19;20354;-69
2022/04/08 02:38:37;;;;;;;1.47;1.00;;;7.40;99.90;;;;;;7382460;19;20466;-67
2022/04/08 02:41:02;;;;;;;1.55;1.10;;;7.30;99.90;;;;;;7373783;19;21205;-68
2022/04/08 02:43:28;;;;;;;3.10;1.10;;;7.10;99.90;;;;;;7380817;19;20309;-68
2022/04/08 02:45:54;;;;;;;1.27;1.13;;;7.00;99.90;;;;;;7378846;19;20793;-69
2022/04/08 02:48:19;;;;;;;1.40;1.30;;;6.80;99.90;;;;;;7380237;19;20328;-69
2022/04/08 02:50:45;;;;;;;2.78;1.50;;;6.60;99.90;;;;;;7374209;19;20324;-69
2022/04/08 02:53:11;;;;;;;2.97;1.35;;;6.60;99.90;;;;;;7379248;19;20408;-68
2022/04/08 02:55:36;;;;;;;1.40;1.30;;;6.50;99.90;;;;;;7377121;19;20336;-69
2022/04/08 02:58:02;;;;;;;1.67;1.25;;;6.50;99.90;;;;;;7380405;19;20340;-68
2022/04/08 03:00:28;;;;;;;1.20;1.10;;;6.50;99.90;;;;;;7377517;19;20324;-69
2022/04/08 03:02:54;;;;;;;2.20;1.20;;;6.40;99.90;;;;;;7379597;19;20339;-69
2022/04/08 03:05:19;;;;;;;2.00;1.30;;;6.40;99.90;;;;;;7376160;19;20355;-68
2022/04/08 03:07:45;;;;;;;2.27;1.30;;;6.30;99.90;;;;;;7376812;19;20770;-69
2022/04/08 03:10:11;;;;;;;1.85;1.30;;;6.20;99.90;;;;;;7362446;19;20324;-68
2022/04/08 03:12:36;;;;;;;2.05;1.30;;;6.20;99.90;;;;;;7376950;19;20320;-68
2022/04/08 03:15:03;;;;;;;2.20;1.43;;;6.20;99.90;;;;;;7375247;19;20412;-69
2022/04/08 03:17:28;;;;;;;4.43;1.40;;;6.20;99.90;;;;;;7377203;19;20784;-68
2022/04/08 03:19:55;;;;;;;2.63;1.40;;;6.20;99.90;;;;;;7377043;19;20352;-69
2022/04/08 03:22:21;;;;;;;1.38;1.27;;;6.20;99.90;;;;;;7376845;19;20316;-69
2022/04/08 03:24:47;;;;;;;1.13;1.10;;;6.20;99.90;;;;;;7379404;19;20850;-69
2022/04/08 03:27:13;;;;;;;1.55;1.33;;;6.30;99.90;;;;;;7376603;19;20877;-69
2022/04/08 03:29:39;;;;;;;2.65;1.20;;;6.40;99.90;;;;;;7387722;19;20416;-69
2022/04/08 03:32:05;;;;;;;2.83;1.43;;;6.40;99.90;;;;;;7389639;19;20407;-70
2022/04/08 03:34:31;;;;;;;1.55;1.40;;;6.40;99.90;;;;;;7390216;19;20755;-69
2022/04/08 03:36:57;;;;;;;1.90;1.48;;;6.60;99.90;;;;;;7392716;19;20352;-69
2022/04/08 03:39:23;;;;;;;2.50;1.20;;;6.50;99.90;;;;;;7393299;19;20785;-69
2022/04/08 03:41:48;;;;;;;1.30;1.20;;;6.40;99.90;;;;;;7388804;19;20893;-68
2022/04/08 03:44:14;;;;;;;1.67;1.50;;;6.50;99.90;;;;;;7391042;19;20320;-68
2022/04/08 03:46:41;;;;;;;1.83;1.42;;;6.50;99.90;;;;;;7389536;19;20392;-68
2022/04/08 03:49:14;;;;;;;2.30;1.40;;;6.50;99.90;;;;;;7392050;19;20692;-68
2022/04/08 03:51:48;;;;;;;1.40;1.25;;;6.40;99.90;;;;;;7286036;19;2004513;-68
2022/04/08 03:54:14;;;;;;;1.40;1.30;;;6.40;99.90;;;;;;7391913;19;20647;-68
2022/04/08 03:56:43;;;;;;;1.58;1.33;;;6.40;99.90;;;;;;7389055;19;20340;-68
2022/04/08 03:59:09;;;;;;;1.40;1.30;;;6.40;99.90;;;;;;7393588;19;20305;-68
2022/04/08 04:01:35;;;;;;;1.70;1.20;;;6.40;99.90;;;;;;7385568;19;20361;-67
2022/04/08 04:04:01;;;;;;;2.00;1.30;;;6.40;99.90;;;;;;7389570;19;20336;-68
2022/04/08 04:06:26;;;;;;;1.37;1.27;;;6.40;99.90;;;;;;7390704;19;20408;-68
2022/04/08 04:08:52;;;;;;;2.45;1.30;;;6.40;99.90;;;;;;7393194;19;20341;-67
2022/04/08 04:11:18;;;;;;;1.30;1.20;;;6.50;99.90;;;;;;7386747;19;20322;-68
2022/04/08 04:13:43;;;;;;;2.28;1.50;;;6.60;99.90;;;;;;7387255;19;20320;-70
2022/04/08 04:16:09;;;;;;;2.08;1.35;;;6.60;99.90;;;;;;7381672;19;20347;-69
2022/04/08 04:18:35;;;;;;;1.67;1.30;;;6.60;99.90;;;;;;7385044;19;20672;-70
2022/04/08 04:21:00;;;;;;;2.38;1.50;;;6.50;99.90;;;;;;7381943;19;20312;-69
2022/04/08 04:23:26;;;;;;;2.03;1.60;;;6.50;99.90;;;;;;7386944;19;20333;-68
2022/04/08 04:25:52;;;;;;;1.90;1.27;;;6.40;99.90;;;;;;7387279;19;21206;-69
2022/04/08 04:28:17;;;;;;;1.13;1.03;;;6.60;99.90;;;;;;7388598;19;20873;-68
2022/04/08 04:30:43;;;;;;;1.30;1.20;;;6.50;99.90;;;;;;7391278;19;20453;-68
2022/04/08 04:33:08;;;;;;;1.47;1.17;;;6.50;99.90;;;;;;7396392;19;20852;-70
2022/04/08 04:35:35;;;;;;;1.30;1.20;;;6.60;99.90;;;;;;7376334;19;20344;-69
2022/04/08 04:38:00;;;;;;;1.70;1.33;;;6.40;99.90;;;;;;7393396;19;20327;-70
2022/04/08 04:40:26;;;;;;;1.33;1.27;;;6.40;99.90;;;;;;7383553;19;20585;-68
2022/04/08 04:42:52;;;;;;;1.20;1.10;;;6.40;99.90;;;;;;7383957;19;20388;-69
2022/04/08 04:45:18;;;;;;;1.20;1.20;;;6.30;99.90;;;;;;7380334;19;20316;-69
2022/04/08 04:47:44;;;;;;;1.67;1.50;;;6.10;99.90;;;;;;7380695;19;20351;-70
2022/04/08 04:50:10;;;;;;;1.45;1.35;;;6.00;99.90;;;;;;7380115;19;20700;-69
2022/04/08 04:52:35;;;;;;;1.65;1.50;;;6.00;99.90;;;;;;7381937;19;20647;-68
2022/04/08 04:55:02;;;;;;;1.77;1.53;;;5.90;99.90;;;;;;7383842;19;20687;-68
2022/04/08 04:57:27;;;;;;;2.05;1.58;;;5.80;99.90;;;;;;7382525;19;20987;-69
2022/04/08 04:59:53;;;;;;;2.30;1.70;;;5.80;99.90;;;;;;7384998;19;20416;-69
2022/04/08 05:02:19;;;;;;;1.70;1.60;;;5.80;99.90;;;;;;7378085;19;20391;-69
2022/04/08 05:04:44;;;;;;;1.47;1.37;;;5.70;99.90;;;;;;7382806;19;20961;-69
2022/04/08 05:07:10;;;;;;;1.50;1.40;;;5.70;99.90;;;;;;7379370;19;20371;-69
2022/04/08 05:09:39;;;;;;;2.10;1.42;;;5.70;99.90;;;;;;7379723;19;20333;-70
2022/04/08 05:12:05;;;;;;;1.83;1.60;;;5.70;99.90;;;;;;7381962;19;20345;-68
2022/04/08 05:14:31;;;;;;;2.53;1.42;;;5.70;99.90;;;;;;7379712;19;20352;-70
2022/04/08 05:16:58;;;;;;;2.20;1.50;;;5.60;99.90;;;;;;7379455;19;20328;-68
2022/04/08 05:19:24;;;;;;;1.80;1.50;;;5.60;99.90;;;;;;7380840;19;20332;-69
2022/04/08 05:21:51;;;;;;;3.00;1.63;;;5.60;99.90;;;;;;7375259;19;20329;-68
2022/04/08 05:24:16;;;;;;;1.50;1.40;;;5.60;99.90;;;;;;7381184;19;20374;-69
2022/04/08 05:26:42;;;;;;;1.90;1.50;;;5.50;99.90;;;;;;7381547;19;20329;-68
2022/04/08 05:29:08;;;;;;;2.33;1.77;;;5.50;99.90;;;;;;7381332;19;20392;-68
2022/04/08 05:31:33;;;;;;;2.10;1.83;;;5.50;99.90;;;;;;7380797;19;20329;-68
2022/04/08 05:33:59;;;;;;;1.98;1.77;;;5.50;99.90;;;;;;7380352;19;20305;-69
2022/04/08 05:36:25;;;;;;;1.87;1.63;;;5.50;99.90;;;;;;7383657;19;20329;-68
2022/04/08 05:38:50;;;;;;;2.10;1.67;;;5.50;99.90;;;;;;7383676;19;20338;-70
2022/04/08 05:41:16;;;;;;;1.43;1.33;;;5.50;99.90;;;;;;7379274;19;20444;-68
2022/04/08 05:43:44;;;;;;;1.30;1.15;;;5.60;99.90;;;;;;7376720;19;20352;-67
2022/04/08 05:46:10;;;;;;;1.63;1.52;;;5.60;99.90;;;;;;7376432;19;20320;-67
2022/04/08 05:48:36;;;;;;;1.50;1.40;;;5.60;99.90;;;;;;7381455;19;20337;-66
2022/04/08 05:51:01;;;;;;;1.50;1.40;;;5.60;99.90;;;;;;7373052;19;20325;-66
2022/04/08 05:53:27;;;;;;;2.50;1.77;;;5.60;99.90;;;;;;7379144;19;20333;-67
2022/04/08 05:55:56;;;;;;;1.13;1.13;;;5.70;99.90;;;;;;7377921;19;20357;-68
2022/04/08 05:58:22;;;;;;;1.40;1.30;;;5.70;99.90;;;;;;7382155;19;20327;-67
2022/04/08 06:00:47;;;;;;;2.20;1.40;;;5.80;99.90;;;;;;7367446;19;20651;-68
2022/04/08 06:03:13;;;;;;;1.50;1.40;;;5.80;99.90;;;;;;7380919;19;20321;-67
2022/04/08 06:05:39;;;;;;;1.80;1.50;;;5.80;99.90;;;;;;7380455;19;20341;-67
2022/04/08 06:08:05;;;;;;;1.53;1.40;;;5.90;99.90;;;;;;7382193;19;20876;-68
2022/04/08 06:10:30;;;;;;;1.40;1.30;;;5.90;99.90;;;;;;7378503;19;21011;-68
2022/04/08 06:12:56;;;;;;;1.50;1.40;;;5.90;99.90;;;;;;7381550;19;20308;-68
2022/04/08 06:15:22;;;;;;;1.67;1.30;;;6.00;99.90;;;;;;7379114;19;20332;-67
2022/04/08 06:17:47;;;;;;;1.55;1.42;;;6.00;99.90;;;;;;7384208;19;20331;-68
2022/04/08 06:20:16;;;;;;;2.78;1.35;;;6.00;99.90;;;;;;7384401;19;20300;-69
2022/04/08 06:22:41;;;;;;;2.00;1.63;;;6.10;99.90;;;;;;7382574;19;20340;-69
2022/04/08 06:25:08;;;;;;;2.30;1.60;;;6.10;99.90;;;;;;7381712;19;20345;-67
2022/04/08 06:27:33;;;;;;;1.92;1.70;;;6.20;99.90;;;;;;7382021;19;20340;-68
2022/04/08 06:29:59;;;;;;;2.87;1.83;;;6.30;99.90;;;;;;7376585;19;20362;-68
2022/04/08 06:32:25;;;;;;;2.75;1.90;;;6.30;99.90;;;;;;7369875;19;20971;-68
2022/04/08 06:34:50;;;;;;;2.00;1.80;;;6.20;99.90;;;;;;7378762;19;20333;-68
2022/04/08 06:37:16;;;;;;;1.95;1.83;;;6.30;99.90;;;;;;7379115;19;20484;-68
2022/04/08 06:39:41;;;;;;;1.97;1.70;;;6.30;99.90;;;;;;7382270;19;20661;-67
2022/04/08 06:42:07;;;;;;;2.50;1.63;;;6.40;99.90;;;;;;7379644;19;20337;-68
2022/04/08 06:44:33;;;;;;;2.63;1.90;;;6.50;99.90;;;;;;7377303;19;20368;-68
2022/04/08 06:46:59;;;;;;;2.35;1.77;;;6.50;99.90;;;;;;7377616;19;20335;-68
2022/04/08 06:49:25;;;;;;;2.07;1.77;;;6.50;99.90;;;;;;7380376;19;20321;-68
2022/04/08 06:51:53;;;;;;;1.60;1.50;;;6.60;99.90;;;;;;7376083;19;20866;-69
2022/04/08 06:54:18;;;;;;;1.40;1.30;;;6.50;99.90;;;;;;7379262;19;20348;-68
2022/04/08 06:56:44;;;;;;;1.43;1.33;;;6.70;99.90;;;;;;7376541;19;21048;-69
2022/04/08 06:59:10;;;;;;;1.67;1.57;;;6.70;99.90;;;;;;7379171;19;20333;-69
2022/04/08 07:01:35;;;;;;;1.70;1.60;;;6.80;99.90;;;;;;7373576;19;20329;-68
2022/04/08 07:04:01;;;;;;;1.60;1.50;;;6.90;99.90;;;;;;7372640;19;21128;-67
2022/04/08 07:06:27;;;;;;;1.70;1.60;;;7.00;99.90;;;;;;7377920;19;20335;-68
2022/04/08 07:08:52;;;;;;;1.60;1.50;;;7.10;99.90;;;;;;7380119;19;20341;-68
2022/04/08 07:11:18;;;;;;;1.77;1.67;;;7.00;99.90;;;;;;7374726;19;20306;-68
2022/04/08 07:13:43;;;;;;;2.50;1.60;;;6.90;99.90;;;;;;7379590;19;20329;-68
2022/04/08 07:16:09;;;;;;;1.60;1.50;;;6.90;99.90;;;;;;7376537;19;20333;-68
2022/04/08 07:18:35;;;;;;;1.52;1.42;;;6.80;99.90;;;;;;7379550;19;21028;-66
2022/04/08 07:21:01;;;;;;;1.43;1.33;;;6.90;99.90;;;;;;7375742;19;20340;-67
2022/04/08 07:23:26;;;;;;;1.52;1.42;;;6.90;99.90;;;;;;7376933;19;20360;-70
2022/04/08 07:25:52;;;;;;;1.30;1.20;;;6.80;99.90;;;;;;7360223;19;20359;-69
2022/04/08 07:28:18;;;;;;;1.63;1.53;;;6.70;99.90;;;;;;7378394;19;20344;-69
2022/04/08 07:30:43;;;;;;;1.38;1.27;;;6.70;99.90;;;;;;7371646;19;20336;-68
2022/04/08 07:33:09;;;;;;;1.30;1.20;;;6.70;99.90;;;;;;7379095;19;20293;-68
2022/04/08 07:35:37;;;;;;;1.80;1.20;;;6.80;99.90;;;;;;7373675;19;20340;-69
2022/04/08 07:38:03;;;;;;;1.90;1.33;;;6.70;99.90;;;;;;7378897;19;20343;-69
2022/04/08 07:40:29;;;;;;;1.38;1.30;;;6.60;99.90;;;;;;7373689;19;25075;-68
2022/04/08 07:42:55;;;;;;;1.63;1.52;;;6.70;99.90;;;;;;7379360;19;20420;-68
2022/04/08 07:45:24;;;;;;;2.87;1.63;;;6.90;99.90;;;;;;7378450;19;20354;-68
2022/04/08 07:47:50;;;;;;;3.63;1.70;;;6.80;99.90;;;;;;7377172;19;20344;-68
2022/04/08 07:50:15;;;;;;;1.60;1.50;;;6.90;99.90;;;;;;7373383;19;20358;-69
2022/04/08 07:52:42;;;;;;;1.50;1.40;;;6.90;99.90;;;;;;7377148;19;20341;-67
2022/04/08 07:55:08;;;;;;;1.83;1.40;;;6.90;99.90;;;;;;7373511;19;20356;-68
2022/04/08 07:57:33;;;;;;;1.40;1.30;;;7.20;99.90;;;;;;7375732;19;20329;-69
2022/04/08 07:59:59;;;;;;;3.03;1.77;;;7.20;99.90;;;;;;7374349;19;20869;-68
2022/04/08 08:02:26;;;;;;;1.48;1.30;;;7.30;99.90;;;;;;7375067;19;20427;-68
2022/04/08 08:04:52;;;;;;;1.50;1.35;;;7.10;99.90;;;;;;7379557;19;20377;-67
2022/04/08 08:07:17;;;;;;;1.03;1.03;;;7.10;99.90;;;;;;7380636;19;20312;-67
2022/04/08 08:09:43;;;;;;;1.90;1.30;;;7.20;99.90;;;;;;7374062;19;20503;-67
2022/04/08 08:12:09;;;;;;;1.53;1.20;;;7.20;99.90;;;;;;7374737;19;20858;-67
2022/04/08 08:14:35;;;;;;;1.33;1.23;;;7.10;99.90;;;;;;7382035;19;20324;-68
2022/04/08 08:17:01;;;;;;;1.63;1.27;;;7.10;99.90;;;;;;7381848;19;20338;-66
2022/04/08 08:19:28;;;;;;;1.10;1.05;;;7.30;99.90;;;;;;7386606;19;20441;-67
2022/04/08 08:21:53;;;;;;;1.00;1.00;;;7.50;99.90;;;;;;7377873;19;20874;-67
2022/04/08 08:24:19;;;;;;;1.13;1.10;;;7.70;99.90;;;;;;7379979;19;20349;-68
2022/04/08 08:26:45;;;;;;;1.10;1.00;;;7.70;99.90;;;;;;7381596;19;20312;-69
2022/04/08 08:29:10;;;;;;;1.02;0.98;;;7.60;99.90;;;;;;7359486;19;20904;-68
2022/04/08 08:31:36;;;;;;;1.37;1.17;;;7.60;99.90;;;;;;7380311;19;20459;-68
2022/04/08 08:34:02;;;;;;;0.95;0.85;;;7.50;99.90;;;;;;7383805;19;20468;-68
2022/04/08 08:36:28;;;;;;;0.90;0.90;;;7.40;99.90;;;;;;7381356;19;20337;-69
2022/04/08 08:38:54;;;;;;;0.70;0.70;;;7.30;99.90;;;;;;7382502;19;20317;-69
2022/04/08 08:41:20;;;;;;;0.70;0.70;;;7.30;99.90;;;;;;7379696;19;20906;-68
2022/04/08 08:43:47;;;;;;;0.95;0.95;;;7.30;99.90;;;;;;7381810;19;20369;-69
2022/04/08 08:46:15;;;;;;;0.90;0.90;;;7.30;99.90;;;;;;7379032;19;20423;-68
2022/04/08 08:48:43;;;;;;;1.10;1.10;;;7.30;99.90;;;;;;7385812;19;20364;-69
2022/04/08 08:51:08;;;;;;;4.60;2.45;;;7.50;99.90;;;;;;7377401;19;21590;-68
2022/04/08 08:53:34;;;;;;;3.87;2.43;;;7.60;99.90;;;;;;7382262;19;20502;-68
2022/04/08 08:56:00;;;;;;;0.90;0.90;;;7.80;99.90;;;;;;7380834;19;20348;-68
2022/04/08 08:58:29;;;;;;;0.75;0.75;;;7.70;99.90;;;;;;7383976;19;20320;-70
2022/04/08 09:00:55;;;;;;;1.10;1.10;;;7.80;99.90;;;;;;7380328;19;20388;-68
2022/04/08 09:03:21;;;;;;;1.02;0.93;;;7.60;99.90;;;;;;7382819;19;20744;-71
2022/04/08 09:05:47;;;;;;;1.10;0.98;;;6.80;99.90;;;;;;7379932;19;20336;-69
2022/04/08 09:08:13;;;;;;;1.00;1.00;;;6.40;99.90;;;;;;7383483;19;20326;-68
2022/04/08 09:10:42;;;;;;;0.70;0.70;;;6.30;99.90;;;;;;7379735;19;20404;-68
2022/04/08 09:13:08;;;;;;;0.80;0.80;;;6.00;99.90;;;;;;7381381;19;20313;-69
2022/04/08 09:15:37;;;;;;;1.48;0.77;;;6.10;99.90;;;;;;7377092;19;20963;-69
2022/04/08 09:18:09;;;;;;;0.80;0.80;;;5.90;99.90;;;;;;7378854;19;20885;-70
2022/04/08 09:20:43;;;;;;;0.70;0.70;;;5.80;99.90;;;;;;7376199;19;20317;-69
2022/04/08 09:23:09;;;;;;;0.80;0.80;;;6.00;99.90;;;;;;7382100;19;20340;-69
2022/04/08 09:25:35;;;;;;;0.70;0.70;;;6.30;99.90;;;;;;7377859;19;20308;-68
2022/04/08 09:28:11;;;;;;;1.60;0.90;;;6.60;99.90;;;;;;7380488;19;20351;-68
2022/04/08 09:30:37;;;;;;;1.30;0.82;;;6.90;99.90;;;;;;7379273;19;20672;-69
2022/04/08 09:33:16;;;;;;;0.68;0.68;;;7.10;99.90;;;;;;7379506;19;20332;-69
2022/04/08 09:35:42;;;;;;;0.70;0.70;;;7.30;99.90;;;;;;7374768;19;20337;-69
2022/04/08 09:38:08;;;;;;;0.70;0.70;;;7.50;99.90;;;;;;7380420;19;20317;-69
2022/04/08 09:40:37;;;;;;;0.80;0.80;;;7.60;99.90;;;;;;7379937;19;20323;-68
2022/04/08 09:43:03;;;;;;;0.80;0.80;;;7.50;99.90;;;;;;7377322;19;20364;-68
2022/04/08 09:45:30;;;;;;;1.00;0.80;;;7.30;99.90;;;;;;7379436;19;20317;-68
2022/04/08 09:47:59;;;;;;;1.00;0.90;;;7.30;99.90;;;;;;7380601;19;20428;-69
2022/04/08 09:50:25;;;;;;;1.00;1.00;;;7.20;99.90;;;;;;7376357;19;20315;-69
2022/04/08 09:52:51;;;;;;;1.30;0.80;;;7.30;99.90;;;;;;7387701;19;20296;-69
2022/04/08 09:55:17;;;;;;;0.80;0.80;;;7.20;99.90;;;;;;7383684;19;20640;-69
2022/04/08 09:57:44;;;;;;;0.90;0.90;;;7.30;99.90;;;;;;7381220;19;20885;-70
2022/04/08 10:00:10;;;;;;;2.00;0.85;;;7.70;99.90;;;;;;7374625;19;20787;-68
2022/04/08 10:02:39;;;;;;;0.77;0.77;;;8.00;99.90;;;;;;7378748;19;20305;-70
2022/04/08 10:05:06;;;;;;;1.50;0.88;;;8.10;99.90;;;;;;7378231;19;20368;-70
2022/04/08 10:07:32;;;;;;;1.10;1.00;;;8.10;99.90;;;;;;7378777;19;20376;-69
2022/04/08 10:10:21;;;;;;;1.30;1.07;;;8.30;99.90;;;;;;7377588;19;20424;-70
2022/04/08 10:13:04;;;;;;;2.23;0.90;;;8.70;99.90;;;;;;7375724;19;20359;-69
2022/04/08 10:15:39;;;;;;;1.00;0.93;;;8.50;99.90;;;;;;7276402;19;2004375;-69
2022/04/08 10:18:04;;;;;;;0.80;0.80;;;8.50;99.90;;;;;;7278320;19;2006093;-69
2022/04/08 10:20:31;;;;;;;3.03;1.10;;;8.50;99.90;;;;;;7376271;19;20777;-70
2022/04/08 10:23:13;;;;;;;1.10;1.00;;;8.30;99.90;;;;;;7377964;19;20335;-70
2022/04/08 10:25:43;;;;;;;1.00;0.90;;;8.40;99.90;;;;;;7375784;19;20317;-70
2022/04/08 10:28:10;;;;;;;1.00;1.00;;;8.40;99.90;;;;;;7378821;19;20329;-69
2022/04/08 10:30:43;;;;;;;1.33;0.88;;;8.70;99.90;;;;;;7374978;19;20404;-69
2022/04/08 10:33:11;;;;;;;1.27;1.02;;;9.20;99.90;;;;;;7380229;19;20975;-70
2022/04/08 10:35:37;;;;;;;1.55;1.40;;;9.70;99.90;;;;;;7378052;19;20317;-69
2022/04/08 10:38:05;;;;;;;0.70;0.70;;;10.00;99.90;;;;;;7376825;19;20328;-71
2022/04/08 10:40:40;;;;;;;1.33;0.83;;;9.70;99.90;;;;;;7372821;19;20590;-70
2022/04/08 10:43:09;;;;;;;1.30;1.00;;;9.20;99.90;;;;;;7379126;19;20348;-70
2022/04/08 10:45:36;;;;;;;1.33;0.90;;;9.00;99.90;;;;;;7378222;19;20844;-71
2022/04/08 10:48:12;;;;;;;2.10;1.17;;;9.10;99.90;;;;;;7381338;19;20321;-70
2022/04/08 10:50:38;;;;;;;1.20;1.10;;;9.30;99.90;;;;;;7271310;19;2004468;-71
2022/04/08 10:53:18;;;;;;;2.10;1.05;;;9.70;99.90;;;;;;7377840;19;20948;-71
2022/04/08 10:56:07;;;;;;;1.20;1.00;;;10.00;99.90;;;;;;7380436;19;20376;-70
2022/04/08 10:58:44;;;;;;;0.98;0.98;;;10.40;99.90;;;;;;7276471;19;2004316;-70
2022/04/08 11:01:14;;;;;;;1.58;1.13;;;10.30;99.90;;;;;;7272050;19;2004510;-70
2022/04/08 11:03:45;;;;;;;2.22;1.45;;;10.20;99.90;;;;;;7378817;19;20356;-70
2022/04/08 11:06:15;;;;;;;2.30;1.48;;;10.00;99.90;;;;;;7375398;19;21362;-70
2022/04/08 11:08:41;;;;;;;1.80;1.50;;;9.80;99.90;;;;;;7378699;19;20398;-70
2022/04/08 11:11:07;;;;;;;1.30;1.20;;;9.80;99.90;;;;;;7374257;19;20304;-70
2022/04/08 11:13:32;;;;;;;2.65;1.30;;;9.70;99.90;;;;;;7376753;19;20328;-70
2022/04/08 11:15:58;;;;;;;2.00;1.40;;;9.70;99.90;;;;;;7376987;19;20329;-71
2022/04/08 11:18:26;;;;;;;1.70;1.17;;;9.90;99.90;;;;;;7379095;19;20328;-71
2022/04/08 11:20:52;;;;;;;2.80;1.38;;;9.80;99.90;;;;;;7376347;19;20340;-70
2022/04/08 11:25:56;;;;;;;1.53;1.20;;;10.10;99.90;;;;;;7374164;19;20816;-71
2022/04/08 11:28:22;;;;;;;2.35;1.60;;;10.20;99.90;;;;;;7379229;19;20330;-70
2022/04/08 11:30:54;;;;;;;4.63;2.00;;;10.30;99.90;;;;;;7374775;19;20359;-70
2022/04/08 11:33:19;;;;;;;1.30;1.02;;;10.40;99.90;;;;;;7379875;19;20334;-70
2022/04/08 11:35:46;;;;;;;1.20;1.10;;;10.30;99.90;;;;;;7376649;19;20392;-70
2022/04/08 11:38:14;;;;;;;3.10;2.20;;;10.10;99.90;;;;;;7379897;19;20702;-71
2022/04/08 11:40:40;;;;;;;3.83;1.75;;;10.10;99.90;;;;;;7374097;19;20337;-69
2022/04/08 11:43:06;;;;;;;1.83;1.20;;;9.90;99.90;;;;;;7376819;19;21424;-69
2022/04/08 11:45:31;;;;;;;1.88;1.38;;;9.70;99.90;;;;;;7373664;19;20324;-70
2022/04/08 11:47:57;;;;;;;2.83;1.30;;;9.80;99.90;;;;;;7376957;19;20338;-69
2022/04/08 11:50:24;;;;;;;2.00;1.10;;;10.00;99.90;;;;;;7379239;19;20341;-70
2022/04/08 11:52:54;;;;;;;1.83;1.40;;;10.10;99.90;;;;;;7385568;19;20361;-70
2022/04/08 11:55:25;;;;;;;3.00;1.00;;;10.20;99.90;;;;;;7382850;19;20325;-70
2022/04/08 11:57:51;;;;;;;1.35;1.15;;;10.20;99.90;;;;;;7388334;19;20312;-70
2022/04/08 12:00:18;;;;;;;1.00;1.00;;;10.30;99.90;;;;;;7381088;19;20703;-70
2022/04/08 12:02:44;;;;;;;2.25;1.02;;;10.40;99.90;;;;;;7381671;19;20375;-70
2022/04/08 12:05:09;;;;;;;1.50;1.00;;;10.30;99.90;;;;;;7381969;19;20683;-70
2022/04/08 12:07:35;;;;;;;0.90;0.90;;;10.20;99.90;;;;;;7383180;19;20374;-70
2022/04/08 12:10:00;;;;;;;1.52;1.10;;;10.50;99.90;;;;;;7379598;19;20351;-70
2022/04/08 12:12:28;;;;;;;0.80;0.80;;;10.40;99.90;;;;;;7380531;19;20396;-70
2022/04/08 12:14:54;;;;;;;1.63;1.10;;;10.40;99.90;;;;;;7381606;19;20393;-69
2022/04/08 12:17:20;;;;;;;2.35;1.65;;;10.40;99.90;;;;;;7383696;19;20376;-69
2022/04/08 12:19:47;;;;;;;0.97;0.77;;;10.40;99.90;;;;;;7381904;19;20367;-71
2022/04/08 12:22:14;;;;;;;2.10;1.45;;;10.20;99.90;;;;;;7380894;19;20325;-69
2022/04/08 12:24:43;;;;;;;1.52;1.20;;;10.30;99.90;;;;;;7381053;19;20644;-70
2022/04/08 12:27:19;;;;;;;2.53;1.00;;;10.20;99.90;;;;;;7382769;19;20332;-70
2022/04/08 12:29:45;;;;;;;1.10;1.00;;;10.20;99.90;;;;;;7382876;19;20897;-70
2022/04/08 12:32:12;;;;;;;3.67;2.08;;;10.00;99.90;;;;;;7380497;19;20336;-70
2022/04/08 12:34:38;;;;;;;1.53;1.40;;;10.30;99.90;;;;;;7380689;19;20304;-70
2022/04/08 12:37:04;;;;;;;2.60;1.55;;;10.50;99.90;;;;;;7379389;19;20873;-68
2022/04/08 12:39:29;;;;;;;1.33;1.10;;;10.50;99.90;;;;;;7380106;19;20340;-68
2022/04/08 12:41:58;;;;;;;1.40;1.13;;;10.60;99.90;;;;;;7355224;19;20671;-69
2022/04/08 12:44:24;;;;;;;1.63;1.08;;;10.50;99.90;;;;;;7379569;19;20360;-69
2022/04/08 12:46:51;;;;;;;1.90;1.40;;;10.30;99.90;;;;;;7379678;19;20353;-70
2022/04/08 12:49:17;;;;;;;1.30;1.20;;;10.00;99.90;;;;;;7383122;19;20383;-70
2022/04/08 12:51:43;;;;;;;2.78;1.10;;;10.10;99.90;;;;;;7379319;19;20455;-69
2022/04/08 12:54:09;;;;;;;2.13;1.40;;;10.00;99.90;;;;;;7380341;19;20368;-70